sensor_id;sensor_type;location;lat;lon;timestamp;P1;durP1;ratioP1;P2;durP2;ratioP2
29236;SDS011;16266;50.866;4.398;2023-09-19T00:02:01;452.52;;;432.25;;
29236;SDS011;16266;50.866;4.398;2023-09-19T00:04:31;443.17;;;423.00;;
29236;SDS011;16266;50.866;4.398;2023-09-19T00:07:00;494.80;;;472.13;;
29236;SDS011;16266;50.866;4.398;2023-09-19T00:09:27;453.42;;;432.38;;
29236;SDS011;16266;50.866;4.398;2023-09-19T00:11:53;420.00;;;400.90;;
29236;SDS011;16266;50.866;4.398;2023-09-19T00:14:19;426.35;;;406.98;;
29236;SDS011;16266;50.866;4.398;2023-09-19T00:16:45;438.15;;;418.40;;
29236;SDS011;16266;50.866;4.398;2023-09-19T00:19:11;441.20;;;420.95;;
29236;SDS011;16266;50.866;4.398;2023-09-19T00:21:38;447.25;;;427.05;;
29236;SDS011;16266;50.866;4.398;2023-09-19T00:24:06;436.58;;;417.02;;
29236;SDS011;16266;50.866;4.398;2023-09-19T00:26:32;383.35;;;366.67;;
29236;SDS011;16266;50.866;4.398;2023-09-19T00:28:59;377.48;;;360.77;;
29236;SDS011;16266;50.866;4.398;2023-09-19T00:31:30;403.55;;;385.45;;
29236;SDS011;16266;50.866;4.398;2023-09-19T00:33:56;467.30;;;445.70;;
29236;SDS011;16266;50.866;4.398;2023-09-19T00:36:25;456.63;;;435.23;;
29236;SDS011;16266;50.866;4.398;2023-09-19T00:38:51;511.65;;;487.27;;
29236;SDS011;16266;50.866;4.398;2023-09-19T00:41:16;518.97;;;494.33;;
29236;SDS011;16266;50.866;4.398;2023-09-19T00:43:42;497.38;;;474.20;;
29236;SDS011;16266;50.866;4.398;2023-09-19T00:46:08;534.30;;;509.27;;
29236;SDS011;16266;50.866;4.398;2023-09-19T00:48:37;553.08;;;527.05;;
29236;SDS011;16266;50.866;4.398;2023-09-19T00:51:06;570.00;;;542.78;;
29236;SDS011;16266;50.866;4.398;2023-09-19T00:53:32;565.35;;;539.15;;
29236;SDS011;16266;50.866;4.398;2023-09-19T00:55:59;555.85;;;530.42;;
29236;SDS011;16266;50.866;4.398;2023-09-19T00:58:25;536.83;;;512.70;;
29236;SDS011;16266;50.866;4.398;2023-09-19T01:00:51;519.55;;;496.33;;
29236;SDS011;16266;50.866;4.398;2023-09-19T01:03:18;488.42;;;467.05;;
29236;SDS011;16266;50.866;4.398;2023-09-19T01:05:44;440.55;;;421.70;;
29236;SDS011;16266;50.866;4.398;2023-09-19T01:08:10;402.05;;;385.38;;
29236;SDS011;16266;50.866;4.398;2023-09-19T01:11:13;299.85;;;288.00;;
29236;SDS011;16266;50.866;4.398;2023-09-19T01:13:50;220.43;;;211.80;;
29236;SDS011;16266;50.866;4.398;2023-09-19T01:21:55;223.60;;;214.82;;
29236;SDS011;16266;50.866;4.398;2023-09-19T01:24:53;301.92;;;290.05;;
29236;SDS011;16266;50.866;4.398;2023-09-19T01:29:46;399.35;;;383.17;;
29236;SDS011;16266;50.866;4.398;2023-09-19T01:32:13;422.08;;;404.42;;
29236;SDS011;16266;50.866;4.398;2023-09-19T01:34:56;403.13;;;386.67;;
29236;SDS011;16266;50.866;4.398;2023-09-19T01:37:28;404.88;;;388.38;;
29236;SDS011;16266;50.866;4.398;2023-09-19T01:39:57;419.75;;;401.55;;
29236;SDS011;16266;50.866;4.398;2023-09-19T01:48:00;436.20;;;417.83;;
29236;SDS011;16266;50.866;4.398;2023-09-19T01:53:56;438.15;;;419.15;;
29236;SDS011;16266;50.866;4.398;2023-09-19T01:56:32;415.55;;;398.23;;
29236;SDS011;16266;50.866;4.398;2023-09-19T01:59:04;359.35;;;344.85;;
29236;SDS011;16266;50.866;4.398;2023-09-19T02:01:35;288.27;;;276.85;;
29236;SDS011;16266;50.866;4.398;2023-09-19T02:04:03;244.15;;;234.45;;
29236;SDS011;16266;50.866;4.398;2023-09-19T02:06:29;217.35;;;208.75;;
29236;SDS011;16266;50.866;4.398;2023-09-19T02:08:55;176.52;;;169.55;;
29236;SDS011;16266;50.866;4.398;2023-09-19T02:11:21;142.63;;;137.10;;
29236;SDS011;16266;50.866;4.398;2023-09-19T02:13:46;119.55;;;114.88;;
29236;SDS011;16266;50.866;4.398;2023-09-19T02:16:12;122.07;;;117.38;;
29236;SDS011;16266;50.866;4.398;2023-09-19T02:18:42;125.78;;;120.78;;
29236;SDS011;16266;50.866;4.398;2023-09-19T02:21:07;142.77;;;137.13;;
29236;SDS011;16266;50.866;4.398;2023-09-19T02:23:36;153.45;;;147.45;;
29236;SDS011;16266;50.866;4.398;2023-09-19T02:26:01;116.90;;;112.40;;
29236;SDS011;16266;50.866;4.398;2023-09-19T02:28:29;105.18;;;100.88;;
29236;SDS011;16266;50.866;4.398;2023-09-19T02:30:58;93.03;;;89.35;;
29236;SDS011;16266;50.866;4.398;2023-09-19T02:33:24;112.70;;;108.28;;
29236;SDS011;16266;50.866;4.398;2023-09-19T02:35:54;125.63;;;120.38;;
29236;SDS011;16266;50.866;4.398;2023-09-19T02:38:22;202.30;;;194.18;;
29236;SDS011;16266;50.866;4.398;2023-09-19T02:40:50;274.63;;;263.25;;
29236;SDS011;16266;50.866;4.398;2023-09-19T02:43:16;277.75;;;266.45;;
29236;SDS011;16266;50.866;4.398;2023-09-19T02:45:42;320.90;;;307.65;;
29236;SDS011;16266;50.866;4.398;2023-09-19T02:48:08;398.20;;;381.85;;
29236;SDS011;16266;50.866;4.398;2023-09-19T02:50:34;396.50;;;380.02;;
29236;SDS011;16266;50.866;4.398;2023-09-19T02:52:59;352.38;;;338.25;;
29236;SDS011;16266;50.866;4.398;2023-09-19T02:55:25;400.27;;;383.92;;
29236;SDS011;16266;50.866;4.398;2023-09-19T02:57:52;400.00;;;383.50;;
29236;SDS011;16266;50.866;4.398;2023-09-19T03:00:22;386.13;;;370.50;;
29236;SDS011;16266;50.866;4.398;2023-09-19T03:02:52;399.00;;;382.67;;
29236;SDS011;16266;50.866;4.398;2023-09-19T03:05:20;371.27;;;356.17;;
29236;SDS011;16266;50.866;4.398;2023-09-19T03:07:46;396.42;;;380.38;;
29236;SDS011;16266;50.866;4.398;2023-09-19T03:10:19;379.25;;;364.17;;
29236;SDS011;16266;50.866;4.398;2023-09-19T03:12:45;309.60;;;297.48;;
29236;SDS011;16266;50.866;4.398;2023-09-19T03:15:12;230.70;;;221.80;;
29236;SDS011;16266;50.866;4.398;2023-09-19T03:17:43;163.57;;;156.70;;
29236;SDS011;16266;50.866;4.398;2023-09-19T03:20:10;140.98;;;135.35;;
29236;SDS011;16266;50.866;4.398;2023-09-19T03:22:38;120.03;;;115.30;;
29236;SDS011;16266;50.866;4.398;2023-09-19T03:25:05;116.45;;;111.85;;
29236;SDS011;16266;50.866;4.398;2023-09-19T03:27:35;123.28;;;118.43;;
29236;SDS011;16266;50.866;4.398;2023-09-19T03:30:03;136.13;;;130.52;;
29236;SDS011;16266;50.866;4.398;2023-09-19T03:32:37;168.52;;;161.88;;
29236;SDS011;16266;50.866;4.398;2023-09-19T03:35:15;233.07;;;223.02;;
29236;SDS011;16266;50.866;4.398;2023-09-19T03:37:42;627.85;;;595.88;;
29236;SDS011;16266;50.866;4.398;2023-09-19T03:40:08;698.67;;;661.47;;
29236;SDS011;16266;50.866;4.398;2023-09-19T03:42:37;415.45;;;397.40;;
29236;SDS011;16266;50.866;4.398;2023-09-19T03:45:04;212.57;;;204.15;;
29236;SDS011;16266;50.866;4.398;2023-09-19T03:47:31;404.45;;;388.27;;
29236;SDS011;16266;50.866;4.398;2023-09-19T03:49:57;429.08;;;411.77;;
29236;SDS011;16266;50.866;4.398;2023-09-19T03:52:22;401.45;;;384.73;;
29236;SDS011;16266;50.866;4.398;2023-09-19T03:54:50;387.92;;;372.42;;
29236;SDS011;16266;50.866;4.398;2023-09-19T03:57:15;333.90;;;320.77;;
29236;SDS011;16266;50.866;4.398;2023-09-19T03:59:45;314.13;;;301.90;;
29236;SDS011;16266;50.866;4.398;2023-09-19T04:02:11;223.15;;;214.52;;
29236;SDS011;16266;50.866;4.398;2023-09-19T04:04:47;181.63;;;174.40;;
29236;SDS011;16266;50.866;4.398;2023-09-19T04:07:17;185.60;;;177.75;;
29236;SDS011;16266;50.866;4.398;2023-09-19T04:09:43;169.95;;;163.20;;
29236;SDS011;16266;50.866;4.398;2023-09-19T04:12:10;180.38;;;173.30;;
29236;SDS011;16266;50.866;4.398;2023-09-19T04:14:37;168.25;;;161.43;;
29236;SDS011;16266;50.866;4.398;2023-09-19T04:17:03;161.60;;;154.30;;
29236;SDS011;16266;50.866;4.398;2023-09-19T04:19:30;175.68;;;168.77;;
29236;SDS011;16266;50.866;4.398;2023-09-19T04:21:56;198.10;;;190.35;;
29236;SDS011;16266;50.866;4.398;2023-09-19T04:24:22;210.20;;;201.90;;
29236;SDS011;16266;50.866;4.398;2023-09-19T04:26:47;208.10;;;199.82;;
29236;SDS011;16266;50.866;4.398;2023-09-19T04:29:13;213.00;;;204.73;;
29236;SDS011;16266;50.866;4.398;2023-09-19T04:31:39;220.93;;;212.18;;
29236;SDS011;16266;50.866;4.398;2023-09-19T04:34:05;217.30;;;208.40;;
29236;SDS011;16266;50.866;4.398;2023-09-19T04:36:33;204.25;;;196.15;;
29236;SDS011;16266;50.866;4.398;2023-09-19T04:38:58;215.18;;;206.57;;
29236;SDS011;16266;50.866;4.398;2023-09-19T04:41:24;231.73;;;222.05;;
29236;SDS011;16266;50.866;4.398;2023-09-19T04:43:50;260.00;;;249.60;;
29236;SDS011;16266;50.866;4.398;2023-09-19T04:46:16;242.85;;;232.88;;
29236;SDS011;16266;50.866;4.398;2023-09-19T04:48:43;285.77;;;274.15;;
29236;SDS011;16266;50.866;4.398;2023-09-19T04:51:08;287.58;;;275.48;;
29236;SDS011;16266;50.866;4.398;2023-09-19T04:53:35;254.65;;;244.35;;
29236;SDS011;16266;50.866;4.398;2023-09-19T04:56:01;275.25;;;263.95;;
29236;SDS011;16266;50.866;4.398;2023-09-19T04:58:28;275.23;;;263.73;;
29236;SDS011;16266;50.866;4.398;2023-09-19T05:00:55;303.83;;;291.10;;
29236;SDS011;16266;50.866;4.398;2023-09-19T05:03:21;348.92;;;333.83;;
29236;SDS011;16266;50.866;4.398;2023-09-19T05:05:47;327.77;;;314.08;;
29236;SDS011;16266;50.866;4.398;2023-09-19T05:08:13;323.65;;;310.00;;
29236;SDS011;16266;50.866;4.398;2023-09-19T05:10:40;345.52;;;330.67;;
29236;SDS011;16266;50.866;4.398;2023-09-19T05:13:06;371.27;;;355.38;;
29236;SDS011;16266;50.866;4.398;2023-09-19T05:15:35;316.13;;;303.05;;
29236;SDS011;16266;50.866;4.398;2023-09-19T05:18:01;305.35;;;292.83;;
29236;SDS011;16266;50.866;4.398;2023-09-19T05:20:28;236.52;;;227.05;;
29236;SDS011;16266;50.866;4.398;2023-09-19T05:25:31;282.90;;;271.38;;
29236;SDS011;16266;50.866;4.398;2023-09-19T05:28:00;256.35;;;245.93;;
29236;SDS011;16266;50.866;4.398;2023-09-19T05:30:28;231.95;;;222.38;;
29236;SDS011;16266;50.866;4.398;2023-09-19T05:32:54;271.65;;;260.25;;
29236;SDS011;16266;50.866;4.398;2023-09-19T05:35:21;291.70;;;279.38;;
29236;SDS011;16266;50.866;4.398;2023-09-19T05:37:47;282.70;;;270.98;;
29236;SDS011;16266;50.866;4.398;2023-09-19T05:40:16;274.33;;;263.13;;
29236;SDS011;16266;50.866;4.398;2023-09-19T05:42:42;264.75;;;253.75;;
29236;SDS011;16266;50.866;4.398;2023-09-19T05:45:09;291.63;;;279.52;;
29236;SDS011;16266;50.866;4.398;2023-09-19T05:47:37;354.25;;;338.70;;
29236;SDS011;16266;50.866;4.398;2023-09-19T05:50:10;443.33;;;423.00;;
29236;SDS011;16266;50.866;4.398;2023-09-19T05:52:37;466.63;;;445.17;;
29236;SDS011;16266;50.866;4.398;2023-09-19T05:55:07;504.83;;;481.70;;
29236;SDS011;16266;50.866;4.398;2023-09-19T05:57:37;528.22;;;504.08;;
29236;SDS011;16266;50.866;4.398;2023-09-19T06:00:07;541.20;;;516.28;;
29236;SDS011;16266;50.866;4.398;2023-09-19T06:02:37;528.03;;;503.80;;
29236;SDS011;16266;50.866;4.398;2023-09-19T06:05:04;549.95;;;524.95;;
29236;SDS011;16266;50.866;4.398;2023-09-19T06:07:31;550.35;;;525.35;;
29236;SDS011;16266;50.866;4.398;2023-09-19T06:10:04;513.78;;;490.80;;
29236;SDS011;16266;50.866;4.398;2023-09-19T06:12:34;465.23;;;445.23;;
29236;SDS011;16266;50.866;4.398;2023-09-19T06:15:09;412.92;;;395.77;;
29236;SDS011;16266;50.866;4.398;2023-09-19T06:17:46;313.80;;;301.25;;
29236;SDS011;16266;50.866;4.398;2023-09-19T06:20:16;203.57;;;195.68;;
29236;SDS011;16266;50.866;4.398;2023-09-19T06:22:42;194.10;;;186.13;;
29236;SDS011;16266;50.866;4.398;2023-09-19T06:25:12;235.38;;;225.70;;
29236;SDS011;16266;50.866;4.398;2023-09-19T06:27:42;357.40;;;342.88;;
29236;SDS011;16266;50.866;4.398;2023-09-19T06:30:09;451.63;;;432.58;;
29236;SDS011;16266;50.866;4.398;2023-09-19T06:32:39;398.23;;;381.63;;
29236;SDS011;16266;50.866;4.398;2023-09-19T06:35:09;142.35;;;136.68;;
29236;SDS011;16266;50.866;4.398;2023-09-19T06:37:36;106.95;;;102.78;;
29236;SDS011;16266;50.866;4.398;2023-09-19T06:40:09;142.60;;;136.98;;
29236;SDS011;16266;50.866;4.398;2023-09-19T06:42:42;130.35;;;125.05;;
29236;SDS011;16266;50.866;4.398;2023-09-19T06:45:10;100.72;;;96.82;;
29236;SDS011;16266;50.866;4.398;2023-09-19T06:47:38;90.47;;;87.07;;
29236;SDS011;16266;50.866;4.398;2023-09-19T06:50:05;95.90;;;92.28;;
29236;SDS011;16266;50.866;4.398;2023-09-19T06:52:34;98.30;;;94.53;;
29236;SDS011;16266;50.866;4.398;2023-09-19T06:55:00;255.57;;;245.05;;
29236;SDS011;16266;50.866;4.398;2023-09-19T06:57:28;271.90;;;261.08;;
29236;SDS011;16266;50.866;4.398;2023-09-19T06:59:55;302.38;;;290.27;;
29236;SDS011;16266;50.866;4.398;2023-09-19T07:02:21;419.52;;;402.63;;
29236;SDS011;16266;50.866;4.398;2023-09-19T07:04:47;413.95;;;397.27;;
29236;SDS011;16266;50.866;4.398;2023-09-19T07:07:13;399.70;;;383.75;;
29236;SDS011;16266;50.866;4.398;2023-09-19T07:09:39;245.05;;;235.48;;
29236;SDS011;16266;50.866;4.398;2023-09-19T07:12:05;168.77;;;162.20;;
29236;SDS011;16266;50.866;4.398;2023-09-19T07:14:31;362.58;;;346.85;;
29236;SDS011;16266;50.866;4.398;2023-09-19T07:16:57;368.13;;;352.83;;
29236;SDS011;16266;50.866;4.398;2023-09-19T07:19:25;423.98;;;402.92;;
29236;SDS011;16266;50.866;4.398;2023-09-19T07:21:53;662.55;;;626.90;;
29236;SDS011;16266;50.866;4.398;2023-09-19T07:24:19;788.35;;;741.30;;
29236;SDS011;16266;50.866;4.398;2023-09-19T07:26:47;336.08;;;321.73;;
29236;SDS011;16266;50.866;4.398;2023-09-19T07:29:13;260.98;;;250.55;;
29236;SDS011;16266;50.866;4.398;2023-09-19T07:31:39;225.18;;;215.65;;
29236;SDS011;16266;50.866;4.398;2023-09-19T07:34:05;320.60;;;307.65;;
29236;SDS011;16266;50.866;4.398;2023-09-19T07:36:33;251.05;;;241.32;;
29236;SDS011;16266;50.866;4.398;2023-09-19T07:38:59;195.63;;;187.85;;
29236;SDS011;16266;50.866;4.398;2023-09-19T07:41:25;316.52;;;303.88;;
29236;SDS011;16266;50.866;4.398;2023-09-19T07:43:51;288.08;;;276.52;;
29236;SDS011;16266;50.866;4.398;2023-09-19T07:46:17;222.82;;;214.13;;
29236;SDS011;16266;50.866;4.398;2023-09-19T07:48:43;231.27;;;222.38;;
29236;SDS011;16266;50.866;4.398;2023-09-19T07:51:13;147.20;;;141.20;;
29236;SDS011;16266;50.866;4.398;2023-09-19T07:53:41;273.48;;;261.80;;
29236;SDS011;16266;50.866;4.398;2023-09-19T07:56:07;509.40;;;484.85;;
29236;SDS011;16266;50.866;4.398;2023-09-19T07:58:35;376.40;;;359.90;;
29236;SDS011;16266;50.866;4.398;2023-09-19T08:01:05;397.00;;;379.77;;
29236;SDS011;16266;50.866;4.398;2023-09-19T08:03:32;424.88;;;405.55;;
29236;SDS011;16266;50.866;4.398;2023-09-19T08:05:59;544.78;;;519.03;;
29236;SDS011;16266;50.866;4.398;2023-09-19T08:08:26;508.02;;;484.65;;
29236;SDS011;16266;50.866;4.398;2023-09-19T08:10:52;518.05;;;494.40;;
29236;SDS011;16266;50.866;4.398;2023-09-19T08:13:24;424.83;;;406.52;;
29236;SDS011;16266;50.866;4.398;2023-09-19T08:15:51;456.33;;;436.33;;
29236;SDS011;16266;50.866;4.398;2023-09-19T08:18:20;384.25;;;367.63;;
29236;SDS011;16266;50.866;4.398;2023-09-19T08:20:49;131.80;;;125.90;;
29236;SDS011;16266;50.866;4.398;2023-09-19T08:23:16;79.55;;;76.53;;
29236;SDS011;16266;50.866;4.398;2023-09-19T08:25:45;82.53;;;79.00;;
29236;SDS011;16266;50.866;4.398;2023-09-19T08:28:11;42.92;;;41.42;;
29236;SDS011;16266;50.866;4.398;2023-09-19T08:30:39;36.22;;;34.92;;
29236;SDS011;16266;50.866;4.398;2023-09-19T08:33:06;29.40;;;28.40;;
29236;SDS011;16266;50.866;4.398;2023-09-19T08:35:32;35.90;;;34.60;;
29236;SDS011;16266;50.866;4.398;2023-09-19T08:37:58;30.33;;;29.33;;
29236;SDS011;16266;50.866;4.398;2023-09-19T08:40:29;23.65;;;22.42;;
29236;SDS011;16266;50.866;4.398;2023-09-19T08:42:59;33.33;;;32.10;;
29236;SDS011;16266;50.866;4.398;2023-09-19T08:45:26;19.02;;;18.33;;
29236;SDS011;16266;50.866;4.398;2023-09-19T08:51:25;30.88;;;29.73;;
29236;SDS011;16266;50.866;4.398;2023-09-19T08:54:03;22.17;;;21.02;;
29236;SDS011;16266;50.866;4.398;2023-09-19T08:56:32;30.08;;;29.08;;
29236;SDS011;16266;50.866;4.398;2023-09-19T08:59:06;21.30;;;19.88;;
29236;SDS011;16266;50.866;4.398;2023-09-19T09:01:34;27.85;;;26.85;;
29236;SDS011;16266;50.866;4.398;2023-09-19T09:04:01;23.92;;;23.05;;
29236;SDS011;16266;50.866;4.398;2023-09-19T09:06:27;18.10;;;17.35;;
29236;SDS011;16266;50.866;4.398;2023-09-19T09:08:54;16.75;;;16.13;;
29236;SDS011;16266;50.866;4.398;2023-09-19T09:11:21;16.60;;;16.00;;
29236;SDS011;16266;50.866;4.398;2023-09-19T09:13:55;15.25;;;14.75;;
29236;SDS011;16266;50.866;4.398;2023-09-19T09:16:29;18.00;;;17.15;;
29236;SDS011;16266;50.866;4.398;2023-09-19T09:18:56;16.88;;;16.23;;
29236;SDS011;16266;50.866;4.398;2023-09-19T09:21:22;17.75;;;17.10;;
29236;SDS011;16266;50.866;4.398;2023-09-19T09:23:50;17.07;;;16.37;;
29236;SDS011;16266;50.866;4.398;2023-09-19T09:26:17;16.65;;;16.05;;
29236;SDS011;16266;50.866;4.398;2023-09-19T09:28:49;23.25;;;22.35;;
29236;SDS011;16266;50.866;4.398;2023-09-19T09:31:23;21.70;;;20.85;;
29236;SDS011;16266;50.866;4.398;2023-09-19T09:33:53;21.55;;;20.73;;
29236;SDS011;16266;50.866;4.398;2023-09-19T09:36:33;20.85;;;20.15;;
29236;SDS011;16266;50.866;4.398;2023-09-19T09:39:03;17.88;;;17.27;;
29236;SDS011;16266;50.866;4.398;2023-09-19T09:41:50;17.52;;;16.80;;
29236;SDS011;16266;50.866;4.398;2023-09-19T09:44:16;17.38;;;16.73;;
29236;SDS011;16266;50.866;4.398;2023-09-19T09:46:45;17.60;;;16.90;;
29236;SDS011;16266;50.866;4.398;2023-09-19T09:49:18;18.70;;;17.95;;
29236;SDS011;16266;50.866;4.398;2023-09-19T09:51:58;19.63;;;18.92;;
29236;SDS011;16266;50.866;4.398;2023-09-19T09:54:58;17.83;;;16.38;;
29236;SDS011;16266;50.866;4.398;2023-09-19T09:57:25;19.15;;;18.45;;
29236;SDS011;16266;50.866;4.398;2023-09-19T09:59:55;15.82;;;15.23;;
29236;SDS011;16266;50.866;4.398;2023-09-19T10:05:14;18.67;;;18.08;;
29236;SDS011;16266;50.866;4.398;2023-09-19T10:07:53;14.48;;;14.07;;
29236;SDS011;16266;50.866;4.398;2023-09-19T10:10:34;17.23;;;16.63;;
29236;SDS011;16266;50.866;4.398;2023-09-19T10:13:04;18.75;;;18.05;;
29236;SDS011;16266;50.866;4.398;2023-09-19T10:15:33;17.47;;;16.87;;
29236;SDS011;16266;50.866;4.398;2023-09-19T10:18:04;19.20;;;18.35;;
29236;SDS011;16266;50.866;4.398;2023-09-19T10:20:44;18.17;;;17.48;;
29236;SDS011;16266;50.866;4.398;2023-09-19T10:23:11;19.77;;;19.08;;
29236;SDS011;16266;50.866;4.398;2023-09-19T10:25:43;17.38;;;16.77;;
29236;SDS011;16266;50.866;4.398;2023-09-19T10:28:12;16.33;;;15.80;;
29236;SDS011;16266;50.866;4.398;2023-09-19T10:30:49;15.50;;;14.90;;
29236;SDS011;16266;50.866;4.398;2023-09-19T10:33:17;15.90;;;15.40;;
29236;SDS011;16266;50.866;4.398;2023-09-19T10:35:47;16.13;;;15.27;;
29236;SDS011;16266;50.866;4.398;2023-09-19T10:38:18;15.32;;;14.82;;
29236;SDS011;16266;50.866;4.398;2023-09-19T10:40:48;16.35;;;15.82;;
29236;SDS011;16266;50.866;4.398;2023-09-19T10:43:16;16.10;;;15.50;;
29236;SDS011;16266;50.866;4.398;2023-09-19T10:45:43;15.10;;;14.48;;
29236;SDS011;16266;50.866;4.398;2023-09-19T10:48:10;15.48;;;14.80;;
29236;SDS011;16266;50.866;4.398;2023-09-19T10:50:47;13.68;;;13.27;;
29236;SDS011;16266;50.866;4.398;2023-09-19T10:53:19;14.23;;;13.73;;
29236;SDS011;16266;50.866;4.398;2023-09-19T10:55:58;15.95;;;15.45;;
29236;SDS011;16266;50.866;4.398;2023-09-19T10:58:29;15.13;;;14.63;;
29236;SDS011;16266;50.866;4.398;2023-09-19T11:01:04;14.63;;;14.13;;
29236;SDS011;16266;50.866;4.398;2023-09-19T11:03:37;16.05;;;14.88;;
29236;SDS011;16266;50.866;4.398;2023-09-19T11:06:19;15.07;;;14.48;;
29236;SDS011;16266;50.866;4.398;2023-09-19T11:09:01;16.20;;;15.10;;
29236;SDS011;16266;50.866;4.398;2023-09-19T11:22:22;15.38;;;14.88;;
29236;SDS011;16266;50.866;4.398;2023-09-19T11:24:49;17.20;;;16.40;;
29236;SDS011;16266;50.866;4.398;2023-09-19T11:27:16;16.30;;;15.80;;
29236;SDS011;16266;50.866;4.398;2023-09-19T11:29:43;15.68;;;15.18;;
29236;SDS011;16266;50.866;4.398;2023-09-19T11:32:10;14.05;;;13.65;;
29236;SDS011;16266;50.866;4.398;2023-09-19T11:40:06;14.65;;;14.15;;
29236;SDS011;16266;50.866;4.398;2023-09-19T11:42:48;15.07;;;14.48;;
29236;SDS011;16266;50.866;4.398;2023-09-19T11:48:22;15.70;;;14.85;;
29236;SDS011;16266;50.866;4.398;2023-09-19T11:50:52;14.18;;;13.77;;
29236;SDS011;16266;50.866;4.398;2023-09-19T11:53:18;15.48;;;14.98;;
29236;SDS011;16266;50.866;4.398;2023-09-19T11:55:45;15.10;;;14.20;;
29236;SDS011;16266;50.866;4.398;2023-09-19T11:58:20;14.45;;;14.00;;
29236;SDS011;16266;50.866;4.398;2023-09-19T12:00:47;15.88;;;15.27;;
29236;SDS011;16266;50.866;4.398;2023-09-19T12:03:24;15.27;;;14.68;;
29236;SDS011;16266;50.866;4.398;2023-09-19T12:05:55;14.88;;;14.38;;
29236;SDS011;16266;50.866;4.398;2023-09-19T12:08:25;17.05;;;15.75;;
29236;SDS011;16266;50.866;4.398;2023-09-19T12:10:52;14.60;;;14.00;;
29236;SDS011;16266;50.866;4.398;2023-09-19T12:13:20;16.15;;;15.65;;
29236;SDS011;16266;50.866;4.398;2023-09-19T12:15:46;14.77;;;14.32;;
29236;SDS011;16266;50.866;4.398;2023-09-19T12:18:27;18.98;;;17.98;;
29236;SDS011;16266;50.866;4.398;2023-09-19T12:20:54;13.80;;;13.30;;
29236;SDS011;16266;50.866;4.398;2023-09-19T12:23:22;20.15;;;19.48;;
29236;SDS011;16266;50.866;4.398;2023-09-19T12:25:48;24.85;;;23.98;;
29236;SDS011;16266;50.866;4.398;2023-09-19T12:28:17;29.27;;;28.38;;
29236;SDS011;16266;50.866;4.398;2023-09-19T12:30:44;21.90;;;21.17;;
29236;SDS011;16266;50.866;4.398;2023-09-19T12:33:20;23.63;;;22.73;;
29236;SDS011;16266;50.866;4.398;2023-09-19T12:35:49;27.08;;;26.08;;
29236;SDS011;16266;50.866;4.398;2023-09-19T12:38:28;26.42;;;25.52;;
29236;SDS011;16266;50.866;4.398;2023-09-19T12:40:57;25.45;;;24.60;;
29236;SDS011;16266;50.866;4.398;2023-09-19T12:43:29;18.88;;;18.27;;
29236;SDS011;16266;50.866;4.398;2023-09-19T12:49:15;23.30;;;22.30;;
29236;SDS011;16266;50.866;4.398;2023-09-19T12:51:47;24.85;;;24.02;;
29236;SDS011;16266;50.866;4.398;2023-09-19T12:54:13;22.27;;;21.55;;
29236;SDS011;16266;50.866;4.398;2023-09-19T12:56:43;26.67;;;25.77;;
29236;SDS011;16266;50.866;4.398;2023-09-19T12:59:09;27.38;;;26.48;;
29236;SDS011;16266;50.866;4.398;2023-09-19T13:01:40;27.40;;;26.08;;
29236;SDS011;16266;50.866;4.398;2023-09-19T13:04:15;21.50;;;20.58;;
29236;SDS011;16266;50.866;4.398;2023-09-19T13:06:46;19.17;;;18.38;;
29236;SDS011;16266;50.866;4.398;2023-09-19T13:09:15;19.05;;;18.33;;
29236;SDS011;16266;50.866;4.398;2023-09-19T13:11:42;19.80;;;19.10;;
29236;SDS011;16266;50.866;4.398;2023-09-19T13:14:23;19.40;;;18.75;;
29236;SDS011;16266;50.866;4.398;2023-09-19T13:25:26;20.15;;;19.35;;
29236;SDS011;16266;50.866;4.398;2023-09-19T13:27:55;18.20;;;17.57;;
29236;SDS011;16266;50.866;4.398;2023-09-19T13:30:23;22.73;;;21.92;;
29236;SDS011;16266;50.866;4.398;2023-09-19T13:32:50;24.17;;;23.30;;
29236;SDS011;16266;50.866;4.398;2023-09-19T13:35:17;23.00;;;22.20;;
29236;SDS011;16266;50.866;4.398;2023-09-19T13:37:43;20.23;;;19.20;;
29236;SDS011;16266;50.866;4.398;2023-09-19T13:40:13;20.45;;;19.75;;
29236;SDS011;16266;50.866;4.398;2023-09-19T13:42:40;27.38;;;26.48;;
29236;SDS011;16266;50.866;4.398;2023-09-19T13:45:06;18.65;;;17.85;;
29236;SDS011;16266;50.866;4.398;2023-09-19T13:47:33;17.30;;;16.70;;
29236;SDS011;16266;50.866;4.398;2023-09-19T13:49:59;20.63;;;19.73;;
29236;SDS011;16266;50.866;4.398;2023-09-19T13:52:27;32.05;;;30.95;;
29236;SDS011;16266;50.866;4.398;2023-09-19T13:54:55;23.63;;;22.83;;
29236;SDS011;16266;50.866;4.398;2023-09-19T13:57:22;20.80;;;20.10;;
29236;SDS011;16266;50.866;4.398;2023-09-19T13:59:48;25.33;;;24.42;;
29236;SDS011;16266;50.866;4.398;2023-09-19T14:02:14;18.85;;;18.15;;
29236;SDS011;16266;50.866;4.398;2023-09-19T14:04:43;17.52;;;16.92;;
29236;SDS011;16266;50.866;4.398;2023-09-19T14:07:09;17.55;;;16.95;;
29236;SDS011;16266;50.866;4.398;2023-09-19T14:09:36;24.88;;;24.08;;
29236;SDS011;16266;50.866;4.398;2023-09-19T14:12:02;26.80;;;25.90;;
29236;SDS011;16266;50.866;4.398;2023-09-19T14:14:28;26.85;;;25.95;;
29236;SDS011;16266;50.866;4.398;2023-09-19T14:16:53;24.23;;;23.42;;
29236;SDS011;16266;50.866;4.398;2023-09-19T14:19:20;27.75;;;26.75;;
29236;SDS011;16266;50.866;4.398;2023-09-19T14:21:46;28.85;;;27.65;;
29236;SDS011;16266;50.866;4.398;2023-09-19T14:24:16;28.48;;;27.48;;
29236;SDS011;16266;50.866;4.398;2023-09-19T14:26:45;26.48;;;25.58;;
29236;SDS011;16266;50.866;4.398;2023-09-19T14:29:11;25.23;;;24.42;;
29236;SDS011;16266;50.866;4.398;2023-09-19T14:31:38;25.95;;;24.95;;
29236;SDS011;16266;50.866;4.398;2023-09-19T14:34:05;24.15;;;23.25;;
29236;SDS011;16266;50.866;4.398;2023-09-19T14:36:30;23.92;;;23.13;;
29236;SDS011;16266;50.866;4.398;2023-09-19T14:38:57;17.55;;;16.92;;
29236;SDS011;16266;50.866;4.398;2023-09-19T14:41:23;22.17;;;21.48;;
29236;SDS011;16266;50.866;4.398;2023-09-19T14:43:52;25.40;;;24.50;;
29236;SDS011;16266;50.866;4.398;2023-09-19T14:46:19;23.45;;;22.65;;
29236;SDS011;16266;50.866;4.398;2023-09-19T14:48:52;23.67;;;22.92;;
29236;SDS011;16266;50.866;4.398;2023-09-19T14:51:18;29.23;;;28.02;;
29236;SDS011;16266;50.866;4.398;2023-09-19T14:53:45;26.08;;;25.17;;
29236;SDS011;16266;50.866;4.398;2023-09-19T14:56:13;21.60;;;20.90;;
29236;SDS011;16266;50.866;4.398;2023-09-19T14:58:45;21.02;;;20.00;;
29236;SDS011;16266;50.866;4.398;2023-09-19T15:01:12;20.45;;;19.75;;
29236;SDS011;16266;50.866;4.398;2023-09-19T15:03:40;22.65;;;21.63;;
29236;SDS011;16266;50.866;4.398;2023-09-19T15:06:08;26.83;;;25.85;;
29236;SDS011;16266;50.866;4.398;2023-09-19T15:08:42;34.33;;;33.15;;
29236;SDS011;16266;50.866;4.398;2023-09-19T15:11:18;36.35;;;35.08;;
29236;SDS011;16266;50.866;4.398;2023-09-19T15:13:45;40.25;;;38.88;;
29236;SDS011;16266;50.866;4.398;2023-09-19T15:16:12;32.88;;;31.77;;